Time;durP1;ratioP1;P1;durP2;ratioP2;P2;SDS_P1;SDS_P2;PMS_P1;PMS_P2;Temp;Humidity;BMP_temperature;BMP_pressure;BME280_temperature;BME280_humidity;BME280_pressure;Samples;Min_cycle;Max_cycle;Signal;HPM_P1;HPM_P2
2024/01/28 00:00:39;;;;;;;13.30;7.10;;;;;;;;;;5030024;28;20182;-70
2024/01/28 00:03:05;;;;;;;11.60;7.97;;;;;;;;;;5034546;28;20275;-71
2024/01/28 00:05:31;;;;;;;16.20;7.80;;;;;;;;;;5010525;28;20205;-71
2024/01/28 00:07:56;;;;;;;15.20;8.03;;;;;;;;;;5029362;28;20178;-71
2024/01/28 00:10:21;;;;;;;12.47;7.60;;;;;;;;;;5028492;28;20198;-71
2024/01/28 00:12:47;;;;;;;13.23;7.50;;;;;;;;;;5027636;28;20187;-71
2024/01/28 00:15:12;;;;;;;13.10;8.23;;;;;;;;;;5024424;28;20193;-72
2024/01/28 00:17:37;;;;;;;11.97;7.20;;;;;;;;;;5009803;28;20257;-71
2024/01/28 00:20:05;;;;;;;11.70;6.60;;;;;;;;;;5030874;28;20256;-72
2024/01/28 00:22:31;;;;;;;13.43;6.43;;;;;;;;;;5006768;28;20259;-70
2024/01/28 00:24:56;;;;;;;13.40;7.30;;;;;;;;;;5005733;28;20682;-70
2024/01/28 00:27:21;;;;;;;14.73;7.50;;;;;;;;;;5029245;28;20313;-71
2024/01/28 00:29:47;;;;;;;12.03;7.70;;;;;;;;;;5036604;28;20198;-70
2024/01/28 00:32:12;;;;;;;11.73;7.17;;;;;;;;;;5026567;28;20198;-70
2024/01/28 00:34:37;;;;;;;15.53;7.20;;;;;;;;;;5037813;28;20193;-71
2024/01/28 00:37:02;;;;;;;14.30;7.77;;;;;;;;;;5032362;28;20654;-71
2024/01/28 00:39:29;;;;;;;14.60;8.23;;;;;;;;;;5036403;28;20232;-71
2024/01/28 00:41:54;;;;;;;14.17;7.80;;;;;;;;;;5020523;28;20190;-71
2024/01/28 00:44:19;;;;;;;16.10;7.67;;;;;;;;;;5037770;28;20184;-71
2024/01/28 00:46:45;;;;;;;17.33;7.70;;;;;;;;;;5037609;28;20178;-71
2024/01/28 00:49:11;;;;;;;13.10;7.50;;;;;;;;;;5040629;28;20174;-71
2024/01/28 00:51:36;;;;;;;11.90;8.20;;;;;;;;;;5000163;28;20213;-70
2024/01/28 00:54:01;;;;;;;12.47;6.80;;;;;;;;;;5022175;28;20174;-71
2024/01/28 00:56:27;;;;;;;13.87;8.07;;;;;;;;;;5026021;28;20224;-70
2024/01/28 00:58:52;;;;;;;13.73;7.60;;;;;;;;;;5030586;28;20191;-70
2024/01/28 01:01:19;;;;;;;16.37;8.00;;;;;;;;;;5029255;28;20291;-71
2024/01/28 01:03:44;;;;;;;13.00;8.00;;;;;;;;;;5011458;28;20193;-71
2024/01/28 01:06:09;;;;;;;14.13;8.37;;;;;;;;;;5034065;28;20174;-71
2024/01/28 01:08:34;;;;;;;10.30;7.10;;;;;;;;;;5035402;28;20178;-71
2024/01/28 01:11:03;;;;;;;15.83;7.13;;;;;;;;;;5035800;28;20285;-71
2024/01/28 01:13:29;;;;;;;14.03;7.27;;;;;;;;;;5038885;28;20232;-71
2024/01/28 01:15:55;;;;;;;13.37;7.50;;;;;;;;;;5018135;28;20166;-71
2024/01/28 01:18:20;;;;;;;12.83;8.00;;;;;;;;;;5036492;28;20715;-70
2024/01/28 01:20:45;;;;;;;14.03;7.20;;;;;;;;;;5029275;28;20190;-71
2024/01/28 01:23:10;;;;;;;12.67;7.13;;;;;;;;;;5031317;28;20229;-70
2024/01/28 01:25:36;;;;;;;12.73;7.63;;;;;;;;;;5033172;28;20250;-70
2024/01/28 01:28:01;;;;;;;12.83;7.80;;;;;;;;;;5038176;28;20174;-70
2024/01/28 01:30:26;;;;;;;14.03;7.40;;;;;;;;;;5034140;28;20335;-72
2024/01/28 01:32:51;;;;;;;16.73;6.93;;;;;;;;;;5032066;28;20622;-71
2024/01/28 01:35:16;;;;;;;15.17;7.27;;;;;;;;;;5015602;28;20264;-70
2024/01/28 01:37:42;;;;;;;16.07;8.27;;;;;;;;;;5033734;28;20174;-70
2024/01/28 01:40:07;;;;;;;10.93;8.23;;;;;;;;;;5026010;28;20240;-70
2024/01/28 01:42:32;;;;;;;14.03;8.60;;;;;;;;;;5035341;28;20297;-71
2024/01/28 01:44:57;;;;;;;17.23;9.20;;;;;;;;;;5036975;28;20171;-71
2024/01/28 01:47:24;;;;;;;11.77;7.37;;;;;;;;;;5034787;28;20181;-70
2024/01/28 01:49:49;;;;;;;16.23;7.93;;;;;;;;;;5038542;28;20297;-71
2024/01/28 01:52:16;;;;;;;17.03;8.93;;;;;;;;;;5036760;28;20755;-71
2024/01/28 01:54:42;;;;;;;12.43;8.10;;;;;;;;;;5034136;28;20175;-71
2024/01/28 01:57:07;;;;;;;13.60;9.13;;;;;;;;;;5025036;28;20170;-70
2024/01/28 01:59:33;;;;;;;14.20;8.67;;;;;;;;;;5035211;28;20284;-71
2024/01/28 02:01:59;;;;;;;20.10;9.30;;;;;;;;;;5083514;22;20221;-66
2024/01/28 02:04:24;;;;;;;15.17;8.33;;;;;;;;;;5062713;28;20173;-68
2024/01/28 02:06:49;;;;;;;15.37;9.23;;;;;;;;;;5064174;28;20165;-67
2024/01/28 02:09:15;;;;;;;15.90;8.90;;;;;;;;;;5066307;28;20188;-67
2024/01/28 02:11:40;;;;;;;15.87;9.97;;;;;;;;;;5066599;28;20307;-68
2024/01/28 02:14:06;;;;;;;17.47;9.17;;;;;;;;;;5053140;28;20185;-68
2024/01/28 02:16:31;;;;;;;15.03;8.97;;;;;;;;;;5051951;28;20386;-66
2024/01/28 02:18:56;;;;;;;14.77;9.00;;;;;;;;;;5052414;28;20602;-67
2024/01/28 02:21:21;;;;;;;19.27;9.97;;;;;;;;;;5050424;28;20395;-67
2024/01/28 02:23:46;;;;;;;18.13;10.03;;;;;;;;;;5044978;28;20173;-68
2024/01/28 02:26:12;;;;;;;17.07;9.03;;;;;;;;;;5049763;28;20280;-67
2024/01/28 02:28:37;;;;;;;15.37;8.03;;;;;;;;;;5038807;28;20751;-67
2024/01/28 02:31:02;;;;;;;16.87;9.50;;;;;;;;;;5051178;28;20198;-68
2024/01/28 02:33:27;;;;;;;22.83;10.10;;;;;;;;;;5049279;28;20293;-67
2024/01/28 02:35:52;;;;;;;18.60;9.97;;;;;;;;;;5051778;28;20185;-68
2024/01/28 02:38:18;;;;;;;21.03;9.67;;;;;;;;;;5050204;28;20308;-67
2024/01/28 02:40:43;;;;;;;18.73;9.00;;;;;;;;;;5048718;28;20264;-68
2024/01/28 02:43:08;;;;;;;17.13;8.83;;;;;;;;;;5051021;28;20578;-67
2024/01/28 02:45:33;;;;;;;19.73;9.20;;;;;;;;;;5042789;28;20198;-68
2024/01/28 02:47:58;;;;;;;21.13;9.40;;;;;;;;;;5042268;28;20642;-68
2024/01/28 02:50:24;;;;;;;17.33;9.50;;;;;;;;;;5050641;28;20202;-68
2024/01/28 02:52:49;;;;;;;19.90;9.97;;;;;;;;;;5052905;28;20206;-68
2024/01/28 02:55:14;;;;;;;20.33;9.93;;;;;;;;;;5042017;28;20189;-68
2024/01/28 02:57:39;;;;;;;19.10;10.17;;;;;;;;;;5050247;28;20178;-68
2024/01/28 03:00:06;;;;;;;17.17;9.97;;;;;;;;;;5051301;28;20174;-68
2024/01/28 03:02:31;;;;;;;11.73;8.40;;;;;;;;;;5045549;28;20621;-67
2024/01/28 03:04:56;;;;;;;15.67;10.10;;;;;;;;;;5043450;28;20215;-68
2024/01/28 03:07:22;;;;;;;14.83;9.90;;;;;;;;;;5048388;28;20648;-67
2024/01/28 03:09:47;;;;;;;17.80;9.47;;;;;;;;;;5047618;28;20240;-68
2024/01/28 03:12:12;;;;;;;15.03;9.27;;;;;;;;;;5040483;28;20225;-68
2024/01/28 03:14:38;;;;;;;15.30;10.13;;;;;;;;;;5050051;28;20673;-67
2024/01/28 03:17:03;;;;;;;16.97;9.83;;;;;;;;;;5051062;28;20192;-67
2024/01/28 03:19:28;;;;;;;19.33;11.00;;;;;;;;;;5049361;28;20176;-67
2024/01/28 03:21:53;;;;;;;16.37;9.77;;;;;;;;;;5045558;28;20224;-65
2024/01/28 03:24:18;;;;;;;18.63;10.63;;;;;;;;;;5035792;28;20174;-67
2024/01/28 03:26:44;;;;;;;20.27;10.27;;;;;;;;;;5049015;28;20540;-66
2024/01/28 03:29:11;;;;;;;15.57;10.50;;;;;;;;;;5050729;28;20189;-67
2024/01/28 03:31:36;;;;;;;16.60;9.73;;;;;;;;;;5050592;28;20688;-66
2024/01/28 03:34:01;;;;;;;19.27;11.57;;;;;;;;;;5048680;28;20186;-67
2024/01/28 03:36:26;;;;;;;20.07;9.33;;;;;;;;;;5049391;28;20178;-66
2024/01/28 03:38:53;;;;;;;16.70;10.53;;;;;;;;;;5043029;28;20188;-66
2024/01/28 03:41:18;;;;;;;15.63;9.27;;;;;;;;;;5047760;28;20177;-67
2024/01/28 03:43:46;;;;;;;17.07;10.57;;;;;;;;;;5050261;28;20170;-68
2024/01/28 03:46:11;;;;;;;16.13;10.43;;;;;;;;;;5036250;28;20185;-68
2024/01/28 03:48:36;;;;;;;16.23;9.87;;;;;;;;;;5038840;28;20532;-68
2024/01/28 03:51:02;;;;;;;14.10;10.23;;;;;;;;;;5049109;28;20672;-67
2024/01/28 03:53:27;;;;;;;13.30;9.33;;;;;;;;;;5050394;28;20201;-68
2024/01/28 03:55:52;;;;;;;22.03;10.00;;;;;;;;;;5035731;28;20177;-68
2024/01/28 03:58:17;;;;;;;19.47;10.40;;;;;;;;;;5041963;28;20729;-67
2024/01/28 04:00:42;;;;;;;14.40;10.23;;;;;;;;;;5033711;28;20185;-68
2024/01/28 04:03:08;;;;;;;24.43;10.00;;;;;;;;;;5048342;28;20213;-68
2024/01/28 04:05:33;;;;;;;21.03;10.70;;;;;;;;;;5035599;28;20218;-68
2024/01/28 04:07:59;;;;;;;15.90;10.27;;;;;;;;;;5049688;28;20556;-68
2024/01/28 04:10:24;;;;;;;16.07;10.37;;;;;;;;;;5049152;28;20205;-67
2024/01/28 04:12:49;;;;;;;17.10;11.63;;;;;;;;;;5049710;28;21936;-69
2024/01/28 04:15:14;;;;;;;18.17;9.90;;;;;;;;;;5049562;28;20192;-69
2024/01/28 04:17:40;;;;;;;21.13;11.87;;;;;;;;;;5039262;28;20335;-69
2024/01/28 04:20:06;;;;;;;20.03;10.60;;;;;;;;;;5046963;28;20192;-67
2024/01/28 04:22:31;;;;;;;16.00;10.33;;;;;;;;;;5040674;28;20210;-67
2024/01/28 04:24:56;;;;;;;21.83;10.10;;;;;;;;;;5049051;28;20558;-67
2024/01/28 04:27:22;;;;;;;19.37;10.13;;;;;;;;;;5049667;28;20190;-69
2024/01/28 04:29:47;;;;;;;14.43;9.23;;;;;;;;;;5049045;28;20201;-68
2024/01/28 04:32:14;;;;;;;17.03;9.70;;;;;;;;;;5050411;28;20194;-68
2024/01/28 04:34:39;;;;;;;20.53;9.00;;;;;;;;;;5040135;28;20178;-68
2024/01/28 04:37:04;;;;;;;22.07;9.10;;;;;;;;;;5046978;28;20239;-69
2024/01/28 04:39:30;;;;;;;24.30;9.97;;;;;;;;;;5049550;28;20645;-68
2024/01/28 04:41:55;;;;;;;13.13;8.50;;;;;;;;;;5048819;28;20360;-67
2024/01/28 04:44:20;;;;;;;15.33;8.77;;;;;;;;;;5048379;28;20166;-68
2024/01/28 04:46:45;;;;;;;17.67;9.03;;;;;;;;;;5047106;28;20194;-68
2024/01/28 04:49:11;;;;;;;16.97;8.77;;;;;;;;;;5049312;28;20602;-68
2024/01/28 04:51:36;;;;;;;16.43;8.80;;;;;;;;;;5041762;28;20209;-68
2024/01/28 04:54:01;;;;;;;15.03;8.00;;;;;;;;;;5048081;28;20186;-68
2024/01/28 04:56:27;;;;;;;16.17;7.93;;;;;;;;;;5034853;28;20178;-68
2024/01/28 04:58:52;;;;;;;14.57;8.43;;;;;;;;;;5048618;28;20236;-69
2024/01/28 05:01:17;;;;;;;11.80;7.77;;;;;;;;;;5048710;28;20231;-69
2024/01/28 05:03:42;;;;;;;16.60;8.93;;;;;;;;;;5048983;28;20219;-68
2024/01/28 05:06:09;;;;;;;13.57;7.60;;;;;;;;;;5048894;28;20192;-68
2024/01/28 05:08:35;;;;;;;14.10;7.50;;;;;;;;;;5049062;28;20248;-68
2024/01/28 05:11:00;;;;;;;17.73;9.47;;;;;;;;;;5030342;28;20209;-69
2024/01/28 05:13:25;;;;;;;15.93;8.10;;;;;;;;;;5046809;28;20194;-68
2024/01/28 05:15:50;;;;;;;15.80;9.43;;;;;;;;;;5053102;28;20276;-68
2024/01/28 05:18:16;;;;;;;16.33;8.30;;;;;;;;;;5052782;28;20259;-68
2024/01/28 05:20:41;;;;;;;21.67;8.27;;;;;;;;;;5051444;28;20198;-68
2024/01/28 05:23:06;;;;;;;17.47;9.50;;;;;;;;;;5053340;28;20336;-68
2024/01/28 05:25:32;;;;;;;14.17;8.80;;;;;;;;;;5052705;28;20240;-67
2024/01/28 05:27:57;;;;;;;19.63;9.73;;;;;;;;;;5051115;28;20783;-69
2024/01/28 05:30:22;;;;;;;14.73;8.57;;;;;;;;;;5046999;28;20579;-68
2024/01/28 05:32:48;;;;;;;15.83;8.90;;;;;;;;;;5033367;28;20205;-69
2024/01/28 05:35:13;;;;;;;14.20;9.17;;;;;;;;;;5037241;28;20562;-68
2024/01/28 05:37:40;;;;;;;13.43;8.33;;;;;;;;;;5052784;28;20227;-66
2024/01/28 05:40:06;;;;;;;18.27;9.50;;;;;;;;;;5041279;28;20173;-69
2024/01/28 05:42:31;;;;;;;14.10;8.77;;;;;;;;;;5052076;28;20718;-68
2024/01/28 05:44:56;;;;;;;18.77;8.50;;;;;;;;;;5052900;28;20272;-67
2024/01/28 05:47:22;;;;;;;12.53;9.00;;;;;;;;;;5052630;28;20185;-68
2024/01/28 05:49:47;;;;;;;19.30;9.37;;;;;;;;;;5044466;28;20210;-68
2024/01/28 05:52:12;;;;;;;16.93;8.30;;;;;;;;;;5049940;28;20732;-68
2024/01/28 05:54:41;;;;;;;12.87;8.50;;;;;;;;;;5042831;28;20265;-67
2024/01/28 05:57:07;;;;;;;14.03;8.23;;;;;;;;;;5051547;28;20170;-68
2024/01/28 05:59:32;;;;;;;13.43;6.87;;;;;;;;;;5052834;28;20184;-68
2024/01/28 06:01:57;;;;;;;18.00;7.40;;;;;;;;;;5052893;28;20254;-67
2024/01/28 06:04:23;;;;;;;18.63;7.77;;;;;;;;;;5048692;28;20185;-68
2024/01/28 06:06:48;;;;;;;11.03;6.97;;;;;;;;;;5051093;28;20182;-68
2024/01/28 06:09:13;;;;;;;12.60;6.77;;;;;;;;;;5050141;28;20196;-68
2024/01/28 06:11:40;;;;;;;11.53;6.97;;;;;;;;;;5044181;28;20209;-69
2024/01/28 06:14:05;;;;;;;15.63;7.23;;;;;;;;;;5049714;28;20185;-69
2024/01/28 06:16:30;;;;;;;10.67;7.17;;;;;;;;;;5049861;28;20188;-69
2024/01/28 06:18:56;;;;;;;13.47;7.60;;;;;;;;;;5049532;28;20178;-68
2024/01/28 06:21:21;;;;;;;10.57;6.37;;;;;;;;;;5043583;28;20178;-66
2024/01/28 06:23:46;;;;;;;19.83;6.63;;;;;;;;;;5049073;28;20269;-69
2024/01/28 06:26:11;;;;;;;17.63;7.10;;;;;;;;;;5050745;28;20205;-69
2024/01/28 06:28:37;;;;;;;15.63;7.17;;;;;;;;;;5052479;28;20659;-69
2024/01/28 06:31:02;;;;;;;17.70;7.20;;;;;;;;;;5050384;28;20216;-68
2024/01/28 06:33:28;;;;;;;13.30;6.43;;;;;;;;;;5033759;28;20256;-68
2024/01/28 06:35:53;;;;;;;15.30;6.77;;;;;;;;;;5051386;28;20227;-69
2024/01/28 06:38:18;;;;;;;14.00;6.63;;;;;;;;;;5044327;28;20177;-69
2024/01/28 06:40:43;;;;;;;11.70;6.67;;;;;;;;;;5043282;28;20661;-66
2024/01/28 06:43:09;;;;;;;11.30;6.37;;;;;;;;;;5040895;28;20205;-68
2024/01/28 06:45:34;;;;;;;15.60;6.60;;;;;;;;;;5040620;28;20181;-68
2024/01/28 06:47:59;;;;;;;16.37;8.00;;;;;;;;;;5050916;28;20220;-69
2024/01/28 06:50:24;;;;;;;13.83;6.33;;;;;;;;;;5037296;28;20753;-69
2024/01/28 06:52:49;;;;;;;13.00;6.87;;;;;;;;;;5049355;28;20198;-69
2024/01/28 06:55:15;;;;;;;12.47;6.97;;;;;;;;;;5048764;28;20182;-69
2024/01/28 06:57:40;;;;;;;10.23;6.13;;;;;;;;;;5043397;28;20220;-69
2024/01/28 07:00:09;;;;;;;11.23;5.93;;;;;;;;;;5040715;28;20208;-69
2024/01/28 07:02:35;;;;;;;15.40;6.90;;;;;;;;;;5034943;28;20225;-68
2024/01/28 07:05:01;;;;;;;12.17;5.50;;;;;;;;;;5046905;28;20181;-67
2024/01/28 07:07:26;;;;;;;15.43;6.97;;;;;;;;;;5050305;28;20672;-67
2024/01/28 07:09:51;;;;;;;15.27;7.27;;;;;;;;;;5035160;28;20205;-68
2024/01/28 07:12:16;;;;;;;12.63;7.03;;;;;;;;;;5047251;28;20194;-69
2024/01/28 07:14:41;;;;;;;10.37;5.83;;;;;;;;;;5049305;28;20182;-68
2024/01/28 07:17:07;;;;;;;18.83;6.10;;;;;;;;;;5049489;28;20173;-69
2024/01/28 07:19:32;;;;;;;14.37;6.57;;;;;;;;;;5030373;28;20186;-68
2024/01/28 07:21:57;;;;;;;13.67;6.83;;;;;;;;;;5037115;28;20193;-69
2024/01/28 07:24:22;;;;;;;13.60;6.57;;;;;;;;;;5050999;28;20173;-68
2024/01/28 07:26:48;;;;;;;14.17;7.10;;;;;;;;;;5032458;28;20173;-66
2024/01/28 07:29:13;;;;;;;16.17;6.80;;;;;;;;;;5047115;28;20422;-68
2024/01/28 07:31:38;;;;;;;14.77;6.23;;;;;;;;;;5050684;28;20205;-65
2024/01/28 07:34:04;;;;;;;11.03;6.63;;;;;;;;;;5049384;28;20177;-67
2024/01/28 07:36:29;;;;;;;10.33;6.70;;;;;;;;;;5050343;28;20652;-67
2024/01/28 07:38:54;;;;;;;14.00;6.97;;;;;;;;;;5047167;28;20174;-68
2024/01/28 07:41:19;;;;;;;12.17;6.50;;;;;;;;;;5045435;28;20184;-68
2024/01/28 07:43:45;;;;;;;15.40;7.07;;;;;;;;;;5032973;28;20177;-67
2024/01/28 07:46:10;;;;;;;14.03;6.97;;;;;;;;;;5049140;28;20185;-67
2024/01/28 07:48:36;;;;;;;18.53;7.33;;;;;;;;;;5049280;28;20561;-69
2024/01/28 07:51:01;;;;;;;10.70;6.70;;;;;;;;;;5041151;28;20210;-68
2024/01/28 07:53:26;;;;;;;11.87;6.73;;;;;;;;;;5050330;28;20236;-68
2024/01/28 07:55:52;;;;;;;12.50;6.30;;;;;;;;;;5048317;28;20166;-65
2024/01/28 07:58:17;;;;;;;18.23;6.30;;;;;;;;;;5042899;28;20173;-66
2024/01/28 08:00:42;;;;;;;13.87;7.57;;;;;;;;;;5047442;28;20554;-67
2024/01/28 08:03:08;;;;;;;11.20;6.93;;;;;;;;;;5058690;22;20220;-72
2024/01/28 08:05:33;;;;;;;10.97;6.57;;;;;;;;;;5027600;28;20177;-73
2024/01/28 08:07:58;;;;;;;14.50;8.00;;;;;;;;;;5024880;28;20174;-72
2024/01/28 08:10:24;;;;;;;14.23;7.80;;;;;;;;;;5018184;28;20201;-72
2024/01/28 08:12:49;;;;;;;14.87;8.07;;;;;;;;;;5028550;28;20583;-72
2024/01/28 08:15:15;;;;;;;12.17;7.23;;;;;;;;;;5028794;28;20353;-72
2024/01/28 08:17:40;;;;;;;17.07;8.10;;;;;;;;;;5000293;28;20670;-72
2024/01/28 08:20:07;;;;;;;20.77;7.77;;;;;;;;;;5019316;28;20240;-72
2024/01/28 08:22:32;;;;;;;16.60;8.70;;;;;;;;;;5016220;28;20205;-73
2024/01/28 08:24:58;;;;;;;16.23;7.60;;;;;;;;;;5022704;28;20181;-73
2024/01/28 08:27:23;;;;;;;16.03;7.90;;;;;;;;;;5010861;28;20182;-72
2024/01/28 08:29:48;;;;;;;14.53;7.83;;;;;;;;;;5011183;28;20198;-72
2024/01/28 08:32:13;;;;;;;13.20;7.03;;;;;;;;;;5029978;28;20662;-73
2024/01/28 08:34:38;;;;;;;11.33;7.33;;;;;;;;;;5028303;28;20257;-72
2024/01/28 08:37:04;;;;;;;12.87;7.57;;;;;;;;;;5029701;28;20590;-72
2024/01/28 08:39:29;;;;;;;12.57;7.17;;;;;;;;;;5019973;28;20178;-73
2024/01/28 08:41:55;;;;;;;13.20;7.20;;;;;;;;;;5001005;28;20604;-73
2024/01/28 08:44:20;;;;;;;10.33;6.90;;;;;;;;;;5010671;28;20675;-73
2024/01/28 08:46:46;;;;;;;12.57;6.43;;;;;;;;;;5011603;28;20285;-73
2024/01/28 08:49:11;;;;;;;10.67;6.53;;;;;;;;;;5028139;28;20182;-72
2024/01/28 08:51:36;;;;;;;14.97;5.37;;;;;;;;;;5030153;28;20676;-71
2024/01/28 08:54:02;;;;;;;11.33;6.07;;;;;;;;;;5042472;28;20218;-72
2024/01/28 08:56:27;;;;;;;9.90;5.30;;;;;;;;;;5035380;28;20670;-71
2024/01/28 08:58:52;;;;;;;6.77;4.97;;;;;;;;;;5015577;28;20246;-72
2024/01/28 09:01:17;;;;;;;10.33;5.47;;;;;;;;;;5015470;28;20268;-72
2024/01/28 09:03:42;;;;;;;13.67;4.90;;;;;;;;;;5007327;28;20701;-72
2024/01/28 09:06:08;;;;;;;12.00;4.97;;;;;;;;;;5033655;28;20192;-72
2024/01/28 09:08:33;;;;;;;8.83;5.63;;;;;;;;;;5033629;28;20184;-72
2024/01/28 09:10:59;;;;;;;11.43;5.30;;;;;;;;;;5028468;28;20226;-73
2024/01/28 09:13:24;;;;;;;11.70;5.90;;;;;;;;;;5032535;28;20613;-72
2024/01/28 09:15:49;;;;;;;12.63;5.37;;;;;;;;;;5032371;28;20175;-72
2024/01/28 09:18:15;;;;;;;13.13;5.57;;;;;;;;;;5021160;28;20193;-72
2024/01/28 09:20:40;;;;;;;9.03;5.40;;;;;;;;;;5028209;28;20182;-72
2024/01/28 09:23:05;;;;;;;12.83;6.20;;;;;;;;;;5009936;28;20202;-72
2024/01/28 09:25:32;;;;;;;6.43;4.83;;;;;;;;;;5028098;28;20198;-73
2024/01/28 09:27:58;;;;;;;14.80;6.23;;;;;;;;;;5006830;28;20218;-72
2024/01/28 09:30:23;;;;;;;11.27;5.87;;;;;;;;;;5028107;28;20234;-72
2024/01/28 09:32:48;;;;;;;8.23;5.20;;;;;;;;;;5012519;28;20194;-72
2024/01/28 09:35:13;;;;;;;10.23;5.17;;;;;;;;;;5025725;28;20179;-71
2024/01/28 09:37:38;;;;;;;9.77;5.73;;;;;;;;;;5012936;28;20279;-71
2024/01/28 09:40:04;;;;;;;9.93;5.20;;;;;;;;;;5018664;28;20663;-71
2024/01/28 09:42:29;;;;;;;10.13;5.83;;;;;;;;;;5026342;28;20264;-72
2024/01/28 09:44:54;;;;;;;12.27;4.83;;;;;;;;;;5030312;28;20181;-72
2024/01/28 09:47:20;;;;;;;8.10;5.20;;;;;;;;;;5032507;28;20179;-72
2024/01/28 09:49:48;;;;;;;10.60;5.37;;;;;;;;;;5027818;28;20595;-73
2024/01/28 09:52:13;;;;;;;13.47;5.83;;;;;;;;;;5027751;28;20198;-71
2024/01/28 09:54:44;;;;;;;10.17;5.23;;;;;;;;;;5028787;28;20175;-72
2024/01/28 09:57:10;;;;;;;13.30;5.23;;;;;;;;;;5012438;28;20166;-71
2024/01/28 09:59:36;;;;;;;10.27;5.30;;;;;;;;;;5016839;28;20418;-71
2024/01/28 10:02:02;;;;;;;9.20;4.23;;;;;;;;;;5010822;28;20701;-72
2024/01/28 10:04:28;;;;;;;8.60;4.07;;;;;;;;;;5028725;28;20175;-71
2024/01/28 10:06:57;;;;;;;8.18;4.60;;;;;;;;;;5027186;28;20273;-72
2024/01/28 10:09:22;;;;;;;8.65;4.50;;;;;;;;;;5032070;28;20174;-71
2024/01/28 10:11:47;;;;;;;9.75;5.55;;;;;;;;;;5030492;28;20221;-72
2024/01/28 10:14:13;;;;;;;8.00;4.72;;;;;;;;;;5016699;28;20217;-72
2024/01/28 10:16:38;;;;;;;9.07;4.25;;;;;;;;;;5015539;28;20171;-73
2024/01/28 10:19:05;;;;;;;11.07;4.38;;;;;;;;;;5016000;28;20233;-72
2024/01/28 10:21:31;;;;;;;8.77;3.83;;;;;;;;;;5023225;28;20182;-72
2024/01/28 10:23:57;;;;;;;7.97;3.97;;;;;;;;;;5003334;28;20210;-71
2024/01/28 10:26:22;;;;;;;8.23;4.38;;;;;;;;;;5009420;28;20175;-72
2024/01/28 10:28:47;;;;;;;8.02;4.03;;;;;;;;;;5017135;28;20193;-72
2024/01/28 10:31:12;;;;;;;10.50;4.53;;;;;;;;;;5022382;28;20685;-72
2024/01/28 10:33:37;;;;;;;6.93;4.70;;;;;;;;;;5023756;28;20630;-72
2024/01/28 10:36:05;;;;;;;5.13;3.88;;;;;;;;;;5025926;28;20187;-72
2024/01/28 10:38:32;;;;;;;5.28;4.05;;;;;;;;;;5025922;28;20167;-72
2024/01/28 10:40:58;;;;;;;7.88;4.28;;;;;;;;;;5014130;28;20639;-72
2024/01/28 10:43:26;;;;;;;6.32;4.13;;;;;;;;;;5024721;28;20222;-72
2024/01/28 10:45:54;;;;;;;10.77;5.07;;;;;;;;;;5015428;28;20743;-72
2024/01/28 10:48:21;;;;;;;8.10;4.45;;;;;;;;;;5024554;28;20226;-72
2024/01/28 10:50:46;;;;;;;8.85;4.72;;;;;;;;;;5021380;28;20807;-72
2024/01/28 10:53:12;;;;;;;8.35;4.63;;;;;;;;;;5016838;28;20278;-71
2024/01/28 10:55:38;;;;;;;6.57;4.68;;;;;;;;;;5021803;28;20265;-72
2024/01/28 10:58:04;;;;;;;11.13;5.65;;;;;;;;;;5021115;28;20248;-73
2024/01/28 11:00:30;;;;;;;7.15;4.60;;;;;;;;;;5024547;28;20240;-73
2024/01/28 11:02:58;;;;;;;5.60;4.20;;;;;;;;;;5010887;28;20210;-72
2024/01/28 11:05:24;;;;;;;8.52;4.47;;;;;;;;;;5006533;28;20190;-72
2024/01/28 11:07:49;;;;;;;7.85;4.25;;;;;;;;;;5028514;28;20186;-72
2024/01/28 11:10:15;;;;;;;5.70;4.30;;;;;;;;;;5020905;28;20223;-72
2024/01/28 11:12:40;;;;;;;10.52;5.00;;;;;;;;;;5018386;28;20617;-72
2024/01/28 11:15:10;;;;;;;9.77;4.82;;;;;;;;;;5006619;28;20198;-72
2024/01/28 11:17:37;;;;;;;7.53;5.03;;;;;;;;;;5027810;28;20175;-73
2024/01/28 11:20:09;;;;;;;8.32;5.38;;;;;;;;;;5024222;28;20230;-72
2024/01/28 11:22:50;;;;;;;6.85;4.45;;;;;;;;;;5023996;28;20264;-72
2024/01/28 11:25:16;;;;;;;7.35;4.15;;;;;;;;;;5027952;28;20208;-72
2024/01/28 11:27:41;;;;;;;6.65;4.18;;;;;;;;;;5020055;28;20201;-71
2024/01/28 11:30:09;;;;;;;5.05;3.92;;;;;;;;;;5021505;28;20674;-72
2024/01/28 11:32:34;;;;;;;9.48;4.78;;;;;;;;;;5019926;28;20195;-72
2024/01/28 11:34:59;;;;;;;7.32;4.20;;;;;;;;;;5022728;28;20170;-73
2024/01/28 11:37:27;;;;;;;7.32;3.97;;;;;;;;;;5022454;28;20174;-73
2024/01/28 11:39:55;;;;;;;10.40;4.13;;;;;;;;;;5028829;28;20650;-73
2024/01/28 11:42:20;;;;;;;8.73;4.43;;;;;;;;;;5026365;28;20248;-73
2024/01/28 11:44:46;;;;;;;6.63;3.88;;;;;;;;;;5007318;28;20674;-73
2024/01/28 11:47:13;;;;;;;6.40;4.07;;;;;;;;;;5030039;28;20223;-72
2024/01/28 11:49:38;;;;;;;10.85;4.43;;;;;;;;;;5027623;28;20273;-72
2024/01/28 11:52:05;;;;;;;11.05;4.07;;;;;;;;;;5011311;28;20423;-72
2024/01/28 11:54:30;;;;;;;9.32;4.10;;;;;;;;;;5026405;28;20261;-72
2024/01/28 11:56:56;;;;;;;4.77;3.67;;;;;;;;;;5021401;28;20261;-72
2024/01/28 11:59:22;;;;;;;7.68;4.13;;;;;;;;;;5028319;28;20312;-72
2024/01/28 12:01:47;;;;;;;6.85;4.13;;;;;;;;;;5012395;28;20235;-73
2024/01/28 12:04:13;;;;;;;4.18;3.53;;;;;;;;;;5026193;28;20193;-73
2024/01/28 12:06:38;;;;;;;8.93;3.97;;;;;;;;;;5027037;28;20186;-73
2024/01/28 12:09:03;;;;;;;6.45;3.67;;;;;;;;;;5028911;28;20700;-73
2024/01/28 12:11:29;;;;;;;10.60;5.28;;;;;;;;;;5012517;28;20670;-72
2024/01/28 12:13:54;;;;;;;6.53;3.63;;;;;;;;;;5026005;28;20221;-72
2024/01/28 12:16:22;;;;;;;6.25;3.53;;;;;;;;;;5027256;28;20175;-72
2024/01/28 12:18:48;;;;;;;7.20;3.47;;;;;;;;;;5024552;28;20177;-72
2024/01/28 12:21:17;;;;;;;4.82;3.33;;;;;;;;;;5027115;28;20179;-73
2024/01/28 12:23:43;;;;;;;5.22;3.92;;;;;;;;;;5004389;28;20272;-73
2024/01/28 12:26:09;;;;;;;4.60;3.40;;;;;;;;;;5009712;28;20182;-72
2024/01/28 12:28:34;;;;;;;5.35;3.35;;;;;;;;;;5028635;28;20191;-72
2024/01/28 12:30:59;;;;;;;7.72;3.45;;;;;;;;;;5008582;28;20766;-73
2024/01/28 12:33:24;;;;;;;9.15;3.35;;;;;;;;;;5002518;28;20224;-72
2024/01/28 12:35:50;;;;;;;4.70;2.90;;;;;;;;;;5025728;28;20182;-73
2024/01/28 12:38:15;;;;;;;6.95;2.95;;;;;;;;;;5022830;28;20182;-71
2024/01/28 12:40:40;;;;;;;7.63;3.75;;;;;;;;;;5021625;28;20186;-71
2024/01/28 12:43:06;;;;;;;8.18;3.25;;;;;;;;;;5013943;28;20298;-72
2024/01/28 12:45:31;;;;;;;6.15;3.22;;;;;;;;;;5030020;28;20209;-72
2024/01/28 12:47:56;;;;;;;5.07;3.20;;;;;;;;;;5031771;28;20328;-72
2024/01/28 12:50:21;;;;;;;9.30;3.47;;;;;;;;;;5032177;28;20623;-73
2024/01/28 12:52:46;;;;;;;10.55;3.55;;;;;;;;;;5033621;28;20202;-73
2024/01/28 12:55:12;;;;;;;5.63;3.40;;;;;;;;;;5032448;28;20181;-73
2024/01/28 12:57:38;;;;;;;6.75;3.03;;;;;;;;;;5021448;28;20321;-72
2024/01/28 13:00:06;;;;;;;9.45;3.47;;;;;;;;;;5019927;28;20174;-74
2024/01/28 13:02:31;;;;;;;6.53;3.40;;;;;;;;;;5029872;28;20214;-72
2024/01/28 13:04:57;;;;;;;4.88;3.25;;;;;;;;;;5023764;28;20181;-72
2024/01/28 13:07:23;;;;;;;5.57;3.72;;;;;;;;;;5033111;28;20173;-73
2024/01/28 13:09:48;;;;;;;6.95;3.58;;;;;;;;;;5027407;28;20179;-73
2024/01/28 13:12:14;;;;;;;9.60;3.33;;;;;;;;;;5030260;28;20701;-73
2024/01/28 13:14:39;;;;;;;5.20;3.40;;;;;;;;;;5027829;28;20178;-72
2024/01/28 13:17:04;;;;;;;5.32;3.70;;;;;;;;;;5000395;28;20221;-72
2024/01/28 13:19:29;;;;;;;6.25;3.88;;;;;;;;;;5030140;28;20178;-72
2024/01/28 13:21:54;;;;;;;6.00;3.70;;;;;;;;;;5030105;28;20193;-72
2024/01/28 13:24:20;;;;;;;6.15;3.40;;;;;;;;;;5030003;28;20179;-72
2024/01/28 13:26:45;;;;;;;8.13;3.67;;;;;;;;;;5026743;28;20174;-71
2024/01/28 13:29:11;;;;;;;7.60;3.67;;;;;;;;;;5011984;28;20673;-72
2024/01/28 13:31:36;;;;;;;9.32;3.92;;;;;;;;;;5024307;28;20641;-72
2024/01/28 13:34:01;;;;;;;4.63;3.47;;;;;;;;;;5005850;28;20195;-72
2024/01/28 13:36:26;;;;;;;6.47;3.97;;;;;;;;;;5024083;28;20621;-71
2024/01/28 13:38:51;;;;;;;5.38;3.35;;;;;;;;;;5023037;28;20653;-72
2024/01/28 13:41:17;;;;;;;6.57;3.33;;;;;;;;;;5024556;28;20171;-73
2024/01/28 13:43:42;;;;;;;6.63;3.70;;;;;;;;;;5012181;28;20202;-73
2024/01/28 13:46:08;;;;;;;6.20;3.80;;;;;;;;;;5009390;28;20190;-71
2024/01/28 13:48:33;;;;;;;8.57;3.95;;;;;;;;;;5013882;28;20204;-72
2024/01/28 13:50:59;;;;;;;6.95;3.85;;;;;;;;;;5026406;28;20202;-72
2024/01/28 13:53:24;;;;;;;5.70;3.47;;;;;;;;;;5030114;28;20273;-72
2024/01/28 13:55:49;;;;;;;7.57;4.13;;;;;;;;;;5020691;28;20265;-71
2024/01/28 13:58:14;;;;;;;5.13;3.90;;;;;;;;;;5029693;28;20336;-72
2024/01/28 14:00:40;;;;;;;7.45;3.60;;;;;;;;;;5021876;28;20175;-72
2024/01/28 14:03:05;;;;;;;5.85;3.63;;;;;;;;;;5096735;22;20225;-66
2024/01/28 14:05:30;;;;;;;6.20;3.63;;;;;;;;;;5067380;28;20170;-68
2024/01/28 14:07:55;;;;;;;6.35;3.72;;;;;;;;;;5065858;28;20204;-65
2024/01/28 14:10:21;;;;;;;7.85;4.13;;;;;;;;;;5064916;28;20201;-68
2024/01/28 14:12:46;;;;;;;9.73;4.85;;;;;;;;;;5059850;28;20689;-68
2024/01/28 14:15:11;;;;;;;5.75;3.47;;;;;;;;;;5053577;28;20209;-68
2024/01/28 14:17:36;;;;;;;6.32;4.05;;;;;;;;;;5055294;28;20166;-68
2024/01/28 14:20:03;;;;;;;6.97;4.03;;;;;;;;;;5055555;28;20524;-69
2024/01/28 14:22:29;;;;;;;4.68;3.60;;;;;;;;;;5053317;28;20193;-68